Washoe, Montana
Current Conditions -  °F | °C
As of 1:55 PM on Sunday 21 Dec 2014 (Local Time) from KPOY Reporting Station
Light Snow Light Snow  
Wind Chill: 24°   Ceiling: 1600
Heat Index: 34°   Visibility: 10mi
Dew Point: 32°   Wind: 14mph
Humidity: 93%   Direction: 10°N
Pressure: 29.48"   Gusts: 23mph
Location:  45.1631°N, 109.103°W
Report Text: KPOY 212055Z AUTO 01012G20KT 10SM -SN BKN016 BKN024 OVC035 01/00 A2948 RMK AO2
Loading
Personal Weather Stations






























Interactive Weather Map New forecast layout! Learn more

10-Day Weather Forecast

Advertisements
Track Severe Weather on mobile